sensor_id;sensor_type;location;lat;lon;timestamp;pressure;altitude;pressure_sealevel;temperature;humidity
28428;BME280;15662;49.128;8.520;2023-04-08T00:02:02;100811.31;;;15.24;48.71
28428;BME280;15662;49.128;8.520;2023-04-08T00:04:41;100806.94;;;15.21;48.73
28428;BME280;15662;49.128;8.520;2023-04-08T00:07:10;100810.25;;;15.28;48.71
28428;BME280;15662;49.128;8.520;2023-04-08T00:09:38;100807.53;;;15.30;48.51
28428;BME280;15662;49.128;8.520;2023-04-08T00:12:07;100811.06;;;15.30;48.63
28428;BME280;15662;49.128;8.520;2023-04-08T00:14:35;100801.25;;;15.31;48.58
28428;BME280;15662;49.128;8.520;2023-04-08T00:17:04;100807.34;;;15.34;48.59
28428;BME280;15662;49.128;8.520;2023-04-08T00:19:33;100813.38;;;15.39;48.43
28428;BME280;15662;49.128;8.520;2023-04-08T00:22:02;100806.34;;;15.37;48.36
28428;BME280;15662;49.128;8.520;2023-04-08T00:24:30;100819.41;;;15.44;48.43
28428;BME280;15662;49.128;8.520;2023-04-08T00:26:58;100807.06;;;15.42;48.42
28428;BME280;15662;49.128;8.520;2023-04-08T00:29:26;100817.63;;;15.45;48.43
28428;BME280;15662;49.128;8.520;2023-04-08T00:31:54;100820.19;;;15.48;48.37
28428;BME280;15662;49.128;8.520;2023-04-08T00:34:23;100807.94;;;15.42;48.26
28428;BME280;15662;49.128;8.520;2023-04-08T00:36:51;100815.78;;;15.47;48.37
28428;BME280;15662;49.128;8.520;2023-04-08T00:39:19;100815.78;;;15.47;48.41
28428;BME280;15662;49.128;8.520;2023-04-08T00:41:47;100811.31;;;15.47;48.49
28428;BME280;15662;49.128;8.520;2023-04-08T00:44:15;100807.06;;;15.42;48.50
28428;BME280;15662;49.128;8.520;2023-04-08T00:46:43;100807.88;;;15.44;48.42
28428;BME280;15662;49.128;8.520;2023-04-08T00:49:11;100814.06;;;15.44;48.42
28428;BME280;15662;49.128;8.520;2023-04-08T00:51:39;100811.47;;;15.43;48.49
28428;BME280;15662;49.128;8.520;2023-04-08T00:54:07;100815.09;;;15.42;48.38
28428;BME280;15662;49.128;8.520;2023-04-08T00:56:36;100820.53;;;15.39;48.38
28428;BME280;15662;49.128;8.520;2023-04-08T00:59:04;100825.00;;;15.38;48.67
28428;BME280;15662;49.128;8.520;2023-04-08T01:10:02;100813.66;;;15.32;48.54
28428;BME280;15662;49.128;8.520;2023-04-08T01:12:49;100820.88;;;15.30;48.55
28428;BME280;15662;49.128;8.520;2023-04-08T01:15:19;100819.25;;;15.26;48.67
28428;BME280;15662;49.128;8.520;2023-04-08T01:17:50;100819.22;;;15.27;48.68
28428;BME280;15662;49.128;8.520;2023-04-08T01:20:21;100807.81;;;15.22;48.66
28428;BME280;15662;49.128;8.520;2023-04-08T01:25:33;100811.38;;;15.22;48.71
28428;BME280;15662;49.128;8.520;2023-04-08T01:28:12;100815.72;;;15.25;48.86
28428;BME280;15662;49.128;8.520;2023-04-08T01:30:44;100803.63;;;15.15;48.78
28428;BME280;15662;49.128;8.520;2023-04-08T01:33:16;100819.38;;;15.22;48.69
28428;BME280;15662;49.128;8.520;2023-04-08T01:35:46;100817.63;;;15.21;48.74
28428;BME280;15662;49.128;8.520;2023-04-08T01:38:17;100822.06;;;15.22;48.69
28428;BME280;15662;49.128;8.520;2023-04-08T01:40:47;100810.53;;;15.20;48.79
28428;BME280;15662;49.128;8.520;2023-04-08T01:43:17;100814.22;;;15.18;48.73
28428;BME280;15662;49.128;8.520;2023-04-08T01:45:47;100810.78;;;15.14;48.55
28428;BME280;15662;49.128;8.520;2023-04-08T01:48:15;100807.31;;;15.12;48.79
28428;BME280;15662;49.128;8.520;2023-04-08T01:50:44;100802.13;;;15.08;48.84
28428;BME280;15662;49.128;8.520;2023-04-08T01:53:13;100806.53;;;15.09;49.08
28428;BME280;15662;49.128;8.520;2023-04-08T01:55:42;100803.03;;;15.07;48.92
28428;BME280;15662;49.128;8.520;2023-04-08T01:58:19;100820.06;;;15.04;48.79
28428;BME280;15662;49.128;8.520;2023-04-08T02:00:48;100802.34;;;15.02;48.96
28428;BME280;15662;49.128;8.520;2023-04-08T02:03:20;100807.84;;;14.97;48.92
28428;BME280;15662;49.128;8.520;2023-04-08T02:05:51;100807.84;;;14.97;49.03
28428;BME280;15662;49.128;8.520;2023-04-08T02:08:19;100813.34;;;14.92;49.02
28428;BME280;15662;49.128;8.520;2023-04-08T02:10:47;100814.25;;;14.93;49.02
28428;BME280;15662;49.128;8.520;2023-04-08T02:13:15;100812.56;;;14.90;49.05
28428;BME280;15662;49.128;8.520;2023-04-08T02:15:53;100815.28;;;14.89;49.13
28428;BME280;15662;49.128;8.520;2023-04-08T02:18:26;100807.53;;;14.81;49.33
28428;BME280;15662;49.128;8.520;2023-04-08T02:21:18;100812.94;;;14.80;49.21
28428;BME280;15662;49.128;8.520;2023-04-08T02:23:50;100811.25;;;14.77;49.25
28428;BME280;15662;49.128;8.520;2023-04-08T02:26:18;100812.19;;;14.76;49.51
28428;BME280;15662;49.128;8.520;2023-04-08T02:28:48;100819.22;;;14.79;49.41
28428;BME280;15662;49.128;8.520;2023-04-08T02:31:18;100814.69;;;14.81;49.24
28428;BME280;15662;49.128;8.520;2023-04-08T02:33:48;100811.16;;;14.80;49.28
28428;BME280;15662;49.128;8.520;2023-04-08T02:36:17;100820.97;;;14.80;49.46
28428;BME280;15662;49.128;8.520;2023-04-08T02:38:48;100810.19;;;14.83;49.36
28428;BME280;15662;49.128;8.520;2023-04-08T02:41:17;100819.09;;;14.82;49.38
28428;BME280;15662;49.128;8.520;2023-04-08T02:43:45;100827.94;;;14.84;49.46
28428;BME280;15662;49.128;8.520;2023-04-08T02:46:15;100822.63;;;14.82;49.46
28428;BME280;15662;49.128;8.520;2023-04-08T02:48:43;100812.84;;;14.83;49.43
28428;BME280;15662;49.128;8.520;2023-04-08T02:51:11;100813.66;;;14.85;49.33
28428;BME280;15662;49.128;8.520;2023-04-08T02:53:38;100813.72;;;14.83;49.50
28428;BME280;15662;49.128;8.520;2023-04-08T02:56:10;100805.66;;;14.85;49.47
28428;BME280;15662;49.128;8.520;2023-04-08T02:58:38;100811.94;;;14.82;49.40
28428;BME280;15662;49.128;8.520;2023-04-08T03:01:07;100823.47;;;14.84;49.39
28428;BME280;15662;49.128;8.520;2023-04-08T03:03:36;100817.28;;;14.82;49.54
28428;BME280;15662;49.128;8.520;2023-04-08T03:06:04;100805.03;;;14.77;49.38
28428;BME280;15662;49.128;8.520;2023-04-08T03:08:32;100813.75;;;14.82;49.48
28428;BME280;15662;49.128;8.520;2023-04-08T03:11:00;100815.47;;;14.84;49.43
28428;BME280;15662;49.128;8.520;2023-04-08T03:13:28;100815.53;;;14.83;49.51
28428;BME280;15662;49.128;8.520;2023-04-08T03:15:56;100805.81;;;14.80;49.43
28428;BME280;15662;49.128;8.520;2023-04-08T03:18:24;100813.81;;;14.80;49.49
28428;BME280;15662;49.128;8.520;2023-04-08T03:20:52;100813.88;;;14.79;49.44
28428;BME280;15662;49.128;8.520;2023-04-08T03:23:20;100817.50;;;14.76;49.40
28428;BME280;15662;49.128;8.520;2023-04-08T03:25:48;100820.31;;;14.73;49.33
28428;BME280;15662;49.128;8.520;2023-04-08T03:28:16;100817.81;;;14.68;49.33
28428;BME280;15662;49.128;8.520;2023-04-08T03:30:44;100815.25;;;14.65;49.27
28428;BME280;15662;49.128;8.520;2023-04-08T03:33:12;100821.59;;;14.61;49.25
28428;BME280;15662;49.128;8.520;2023-04-08T03:35:40;100822.75;;;14.54;49.22
28428;BME280;15662;49.128;8.520;2023-04-08T03:38:08;100823.09;;;14.43;49.33
28428;BME280;15662;49.128;8.520;2023-04-08T03:40:35;100826.63;;;14.44;49.31
28428;BME280;15662;49.128;8.520;2023-04-08T03:43:03;100828.69;;;14.36;49.42
28428;BME280;15662;49.128;8.520;2023-04-08T03:45:33;100818.88;;;14.36;49.40
28428;BME280;15662;49.128;8.520;2023-04-08T03:48:01;100826.94;;;14.35;49.60
28428;BME280;15662;49.128;8.520;2023-04-08T03:50:29;100826.78;;;14.39;49.72
28428;BME280;15662;49.128;8.520;2023-04-08T03:52:57;100836.59;;;14.39;49.83
28428;BME280;15662;49.128;8.520;2023-04-08T03:55:24;100835.50;;;14.44;49.94
28428;BME280;15662;49.128;8.520;2023-04-08T03:57:52;100830.97;;;14.46;49.87
28428;BME280;15662;49.128;8.520;2023-04-08T04:00:20;100829.13;;;14.50;49.92
28428;BME280;15662;49.128;8.520;2023-04-08T04:02:49;100822.91;;;14.50;49.96
28428;BME280;15662;49.128;8.520;2023-04-08T04:05:19;100818.44;;;14.50;49.95
28428;BME280;15662;49.128;8.520;2023-04-08T04:07:48;100830.69;;;14.56;50.20
28428;BME280;15662;49.128;8.520;2023-04-08T04:10:16;100832.44;;;14.57;50.15
28428;BME280;15662;49.128;8.520;2023-04-08T04:12:44;100822.69;;;14.56;50.16
28428;BME280;15662;49.128;8.520;2023-04-08T04:15:12;100832.44;;;14.57;50.29
28428;BME280;15662;49.128;8.520;2023-04-08T04:17:40;100828.03;;;14.56;50.22
28428;BME280;15662;49.128;8.520;2023-04-08T04:20:09;100831.56;;;14.56;50.31
28428;BME280;15662;49.128;8.520;2023-04-08T04:22:37;100835.22;;;14.54;50.30
28428;BME280;15662;49.128;8.520;2023-04-08T04:25:05;100831.50;;;14.58;50.22
28428;BME280;15662;49.128;8.520;2023-04-08T04:27:33;100837.66;;;14.60;50.24
28428;BME280;15662;49.128;8.520;2023-04-08T04:30:03;100832.50;;;14.55;50.27
28428;BME280;15662;49.128;8.520;2023-04-08T04:32:32;100845.69;;;14.60;50.27
28428;BME280;15662;49.128;8.520;2023-04-08T04:35:00;100844.03;;;14.56;50.31
28428;BME280;15662;49.128;8.520;2023-04-08T04:37:28;100840.59;;;14.52;50.42
28428;BME280;15662;49.128;8.520;2023-04-08T04:39:56;100836.28;;;14.48;50.33
28428;BME280;15662;49.128;8.520;2023-04-08T04:42:24;100838.84;;;14.51;50.25
28428;BME280;15662;49.128;8.520;2023-04-08T04:44:52;100835.31;;;14.51;50.18
28428;BME280;15662;49.128;8.520;2023-04-08T04:47:21;100846.84;;;14.51;50.27
28428;BME280;15662;49.128;8.520;2023-04-08T04:49:49;100844.25;;;14.50;50.26
28428;BME280;15662;49.128;8.520;2023-04-08T04:52:17;100845.34;;;14.42;50.21
28428;BME280;15662;49.128;8.520;2023-04-08T04:54:45;100846.25;;;14.41;50.33
28428;BME280;15662;49.128;8.520;2023-04-08T04:57:13;100853.47;;;14.39;50.44
28428;BME280;15662;49.128;8.520;2023-04-08T04:59:41;100851.75;;;14.37;50.30
28428;BME280;15662;49.128;8.520;2023-04-08T05:02:08;100861.47;;;14.39;50.41
28428;BME280;15662;49.128;8.520;2023-04-08T05:04:37;100861.50;;;14.38;50.56
28428;BME280;15662;49.128;8.520;2023-04-08T05:07:05;100861.41;;;14.41;50.51
28428;BME280;15662;49.128;8.520;2023-04-08T05:09:32;100857.88;;;14.40;50.41
28428;BME280;15662;49.128;8.520;2023-04-08T05:12:00;100858.88;;;14.36;50.60
28428;BME280;15662;49.128;8.520;2023-04-08T05:14:28;100858.94;;;14.35;50.48
28428;BME280;15662;49.128;8.520;2023-04-08T05:16:57;100862.63;;;14.31;50.49
28428;BME280;15662;49.128;8.520;2023-04-08T05:19:25;100872.59;;;14.26;50.40
28428;BME280;15662;49.128;8.520;2023-04-08T05:21:53;100871.78;;;14.24;50.53
28428;BME280;15662;49.128;8.520;2023-04-08T05:24:21;100871.03;;;14.18;50.42
28428;BME280;15662;49.128;8.520;2023-04-08T05:26:49;100873.66;;;14.20;50.66
28428;BME280;15662;49.128;8.520;2023-04-08T05:29:20;100875.41;;;14.21;50.52
28428;BME280;15662;49.128;8.520;2023-04-08T05:31:48;100865.91;;;14.12;50.51
28428;BME280;15662;49.128;8.520;2023-04-08T05:34:17;100879.00;;;14.18;50.39
28428;BME280;15662;49.128;8.520;2023-04-08T05:36:50;100868.53;;;14.14;50.64
28428;BME280;15662;49.128;8.520;2023-04-08T05:39:18;100872.94;;;14.15;50.79
28428;BME280;15662;49.128;8.520;2023-04-08T05:41:47;100875.59;;;14.15;50.83
28428;BME280;15662;49.128;8.520;2023-04-08T05:44:14;100884.41;;;14.17;50.91
28428;BME280;15662;49.128;8.520;2023-04-08T05:46:42;100889.75;;;14.17;50.98
28428;BME280;15662;49.128;8.520;2023-04-08T05:49:10;100886.06;;;14.21;50.99
28428;BME280;15662;49.128;8.520;2023-04-08T05:51:38;100886.94;;;14.22;51.02
28428;BME280;15662;49.128;8.520;2023-04-08T05:54:06;100881.59;;;14.22;51.09
28428;BME280;15662;49.128;8.520;2023-04-08T05:56:34;100890.53;;;14.20;51.20
28428;BME280;15662;49.128;8.520;2023-04-08T05:59:02;100879.78;;;14.24;51.27
28428;BME280;15662;49.128;8.520;2023-04-08T06:01:31;100895.44;;;14.33;51.24
28428;BME280;15662;49.128;8.520;2023-04-08T06:03:59;100904.22;;;14.36;51.26
28428;BME280;15662;49.128;8.520;2023-04-08T06:06:27;100892.63;;;14.37;51.22
28428;BME280;15662;49.128;8.520;2023-04-08T06:08:55;100886.47;;;14.35;51.47
28428;BME280;15662;49.128;8.520;2023-04-08T06:11:23;100891.75;;;14.37;51.55
28428;BME280;15662;49.128;8.520;2023-04-08T06:13:51;100908.31;;;14.46;51.45
28428;BME280;15662;49.128;8.520;2023-04-08T06:16:19;100905.53;;;14.51;51.63
28428;BME280;15662;49.128;8.520;2023-04-08T06:18:48;100907.28;;;14.52;51.77
28428;BME280;15662;49.128;8.520;2023-04-08T06:21:16;100904.53;;;14.55;51.75
28428;BME280;15662;49.128;8.520;2023-04-08T06:23:44;100915.03;;;14.60;51.73
28428;BME280;15662;49.128;8.520;2023-04-08T06:26:12;100919.91;;;14.74;51.73
28428;BME280;15662;49.128;8.520;2023-04-08T06:28:41;100910.09;;;14.74;51.76
28428;BME280;15662;49.128;8.520;2023-04-08T06:31:09;100919.75;;;14.78;51.69
28428;BME280;15662;49.128;8.520;2023-04-08T06:33:37;100916.94;;;14.83;51.63
28428;BME280;15662;49.128;8.520;2023-04-08T06:36:06;100916.81;;;14.86;51.76
28428;BME280;15662;49.128;8.520;2023-04-08T06:38:35;100926.22;;;14.98;51.56
28428;BME280;15662;49.128;8.520;2023-04-08T06:41:05;100918.78;;;15.06;51.60
28428;BME280;15662;49.128;8.520;2023-04-08T06:43:34;100928.34;;;15.13;51.36
28428;BME280;15662;49.128;8.520;2023-04-08T06:46:03;100932.59;;;15.17;51.48
28428;BME280;15662;49.128;8.520;2023-04-08T06:48:31;100928.03;;;15.20;51.40
28428;BME280;15662;49.128;8.520;2023-04-08T06:51:00;100932.28;;;15.26;51.34
28428;BME280;15662;49.128;8.520;2023-04-08T06:53:28;100932.81;;;15.36;51.21
28428;BME280;15662;49.128;8.520;2023-04-08T06:55:58;100927.31;;;15.40;51.20
28428;BME280;15662;49.128;8.520;2023-04-08T06:58:26;100930.69;;;15.45;51.07
28428;BME280;15662;49.128;8.520;2023-04-08T07:00:54;100932.22;;;15.53;51.09
28428;BME280;15662;49.128;8.520;2023-04-08T07:03:25;100939.00;;;15.61;50.98
28428;BME280;15662;49.128;8.520;2023-04-08T07:05:53;100932.06;;;15.57;50.55
28428;BME280;15662;49.128;8.520;2023-04-08T07:08:21;100945.22;;;15.63;50.77
28428;BME280;15662;49.128;8.520;2023-04-08T07:10:51;100944.19;;;15.66;50.88
28428;BME280;15662;49.128;8.520;2023-04-08T07:13:19;100950.31;;;15.69;50.77
28428;BME280;15662;49.128;8.520;2023-04-08T07:15:48;100947.47;;;15.74;50.62
28428;BME280;15662;49.128;8.520;2023-04-08T07:18:16;100932.47;;;15.70;50.79
28428;BME280;15662;49.128;8.520;2023-04-08T07:20:44;100943.81;;;15.77;50.48
28428;BME280;15662;49.128;8.520;2023-04-08T07:23:13;100944.63;;;15.79;50.34
28428;BME280;15662;49.128;8.520;2023-04-08T07:25:41;100948.22;;;15.78;50.21
28428;BME280;15662;49.128;8.520;2023-04-08T07:28:09;100957.13;;;15.78;50.06
28428;BME280;15662;49.128;8.520;2023-04-08T07:30:37;100943.06;;;15.73;50.00
28428;BME280;15662;49.128;8.520;2023-04-08T07:33:07;100949.28;;;15.73;49.92
28428;BME280;15662;49.128;8.520;2023-04-08T07:35:36;100950.25;;;15.71;49.93
28428;BME280;15662;49.128;8.520;2023-04-08T07:38:04;100960.75;;;15.76;49.70
28428;BME280;15662;49.128;8.520;2023-04-08T07:40:38;100958.78;;;15.81;49.89
28428;BME280;15662;49.128;8.520;2023-04-08T07:43:06;100960.50;;;15.83;49.78
28428;BME280;15662;49.128;8.520;2023-04-08T07:45:35;100960.91;;;15.96;49.81
28428;BME280;15662;49.128;8.520;2023-04-08T07:48:04;100965.25;;;15.98;49.88
28428;BME280;15662;49.128;8.520;2023-04-08T07:50:31;100966.81;;;16.04;49.62
28428;BME280;15662;49.128;8.520;2023-04-08T07:52:59;100958.78;;;16.04;49.70
28428;BME280;15662;49.128;8.520;2023-04-08T07:55:34;100964.78;;;16.11;49.64
28428;BME280;15662;49.128;8.520;2023-04-08T07:58:02;100949.63;;;16.10;49.68
28428;BME280;15662;49.128;8.520;2023-04-08T08:00:32;100963.66;;;16.16;49.17
28428;BME280;15662;49.128;8.520;2023-04-08T08:03:00;100953.19;;;16.10;48.76
28428;BME280;15662;49.128;8.520;2023-04-08T08:05:28;100962.16;;;16.09;48.70
28428;BME280;15662;49.128;8.520;2023-04-08T08:07:56;100970.00;;;16.14;48.68
28428;BME280;15662;49.128;8.520;2023-04-08T08:10:24;100976.34;;;16.11;48.72
28428;BME280;15662;49.128;8.520;2023-04-08T08:12:53;100967.56;;;16.08;48.58
28428;BME280;15662;49.128;8.520;2023-04-08T08:15:20;100984.94;;;16.19;48.67
28428;BME280;15662;49.128;8.520;2023-04-08T08:17:48;100974.28;;;16.18;48.46
28428;BME280;15662;49.128;8.520;2023-04-08T08:20:17;100969.72;;;16.21;48.57
28428;BME280;15662;49.128;8.520;2023-04-08T08:22:45;100979.97;;;16.32;48.43
28428;BME280;15662;49.128;8.520;2023-04-08T08:25:23;100976.47;;;16.30;48.42
28428;BME280;15662;49.128;8.520;2023-04-08T08:27:53;100964.19;;;16.26;48.13
28428;BME280;15662;49.128;8.520;2023-04-08T08:30:22;100976.09;;;16.39;48.26
28428;BME280;15662;49.128;8.520;2023-04-08T08:32:50;100980.16;;;16.49;48.22
28428;BME280;15662;49.128;8.520;2023-04-08T08:35:18;100974.38;;;16.60;47.99
28428;BME280;15662;49.128;8.520;2023-04-08T08:37:47;100969.56;;;16.68;47.87
28428;BME280;15662;49.128;8.520;2023-04-08T08:40:15;100979.75;;;16.82;47.85
28428;BME280;15662;49.128;8.520;2023-04-08T08:42:51;100985.50;;;16.93;47.10
28428;BME280;15662;49.128;8.520;2023-04-08T08:45:19;100984.44;;;16.97;47.32
28428;BME280;15662;49.128;8.520;2023-04-08T08:47:47;100986.66;;;17.08;47.31
28428;BME280;15662;49.128;8.520;2023-04-08T08:50:18;100983.31;;;17.23;46.99
28428;BME280;15662;49.128;8.520;2023-04-08T08:52:50;100983.38;;;17.42;46.68
28428;BME280;15662;49.128;8.520;2023-04-08T08:55:19;101003.22;;;17.59;46.48
28428;BME280;15662;49.128;8.520;2023-04-08T08:58:08;100998.44;;;17.65;46.50
28428;BME280;15662;49.128;8.520;2023-04-08T09:00:39;100983.97;;;17.69;46.17
28428;BME280;15662;49.128;8.520;2023-04-08T09:03:27;100993.66;;;17.72;45.28
28428;BME280;15662;49.128;8.520;2023-04-08T09:06:00;101007.06;;;17.73;45.35
28428;BME280;15662;49.128;8.520;2023-04-08T09:08:34;101009.50;;;17.78;44.98
28428;BME280;15662;49.128;8.520;2023-04-08T09:13:44;100994.94;;;17.63;44.74
28428;BME280;15662;49.128;8.520;2023-04-08T09:16:17;100994.28;;;17.58;44.29
28428;BME280;15662;49.128;8.520;2023-04-08T09:18:46;101006.78;;;17.59;44.11
28428;BME280;15662;49.128;8.520;2023-04-08T09:21:16;101007.63;;;17.60;43.97
28428;BME280;15662;49.128;8.520;2023-04-08T09:23:51;101001.47;;;17.58;43.51
28428;BME280;15662;49.128;8.520;2023-04-08T09:26:23;101008.50;;;17.60;43.58
28428;BME280;15662;49.128;8.520;2023-04-08T09:29:00;101013.94;;;17.59;42.84
28428;BME280;15662;49.128;8.520;2023-04-08T09:31:45;100997.41;;;17.49;43.37
28428;BME280;15662;49.128;8.520;2023-04-08T09:34:16;101001.53;;;17.56;43.13
28428;BME280;15662;49.128;8.520;2023-04-08T09:36:46;101003.22;;;17.59;42.98
28428;BME280;15662;49.128;8.520;2023-04-08T09:39:15;100997.78;;;17.60;42.68
28428;BME280;15662;49.128;8.520;2023-04-08T09:41:50;100999.25;;;17.67;42.54
28428;BME280;15662;49.128;8.520;2023-04-08T09:44:24;100998.25;;;17.70;42.23
28428;BME280;15662;49.128;8.520;2023-04-08T09:47:00;101008.97;;;17.70;41.90
28428;BME280;15662;49.128;8.520;2023-04-08T09:49:46;100999.81;;;17.75;41.77
28428;BME280;15662;49.128;8.520;2023-04-08T09:52:20;100996.09;;;17.78;42.07
28428;BME280;15662;49.128;8.520;2023-04-08T09:55:07;100995.47;;;17.92;41.53
28428;BME280;15662;49.128;8.520;2023-04-08T09:57:56;100998.75;;;17.98;41.49
28428;BME280;15662;49.128;8.520;2023-04-08T10:00:36;100992.22;;;18.04;41.59
28428;BME280;15662;49.128;8.520;2023-04-08T10:03:58;101000.44;;;18.20;40.94
28428;BME280;15662;49.128;8.520;2023-04-08T10:06:18;100990.00;;;18.14;41.00
28428;BME280;15662;49.128;8.520;2023-04-08T10:08:48;100998.19;;;18.29;41.00
28428;BME280;15662;49.128;8.520;2023-04-08T10:11:17;100993.78;;;18.46;40.75
28428;BME280;15662;49.128;8.520;2023-04-08T10:13:45;101003.09;;;18.58;40.41
28428;BME280;15662;49.128;8.520;2023-04-08T10:18:47;101001.00;;;18.81;40.78
28428;BME280;15662;49.128;8.520;2023-04-08T10:21:39;100993.13;;;18.96;40.00
28428;BME280;15662;49.128;8.520;2023-04-08T10:24:14;101005.25;;;19.04;40.21
28428;BME280;15662;49.128;8.520;2023-04-08T10:26:44;101006.13;;;19.22;39.53
28428;BME280;15662;49.128;8.520;2023-04-08T10:31:48;100997.88;;;19.43;38.71
28428;BME280;15662;49.128;8.520;2023-04-08T10:34:51;101008.06;;;19.53;38.51
28428;BME280;15662;49.128;8.520;2023-04-08T10:37:40;101007.34;;;19.50;38.35
28428;BME280;15662;49.128;8.520;2023-04-08T10:40:35;101000.97;;;19.52;37.85
28428;BME280;15662;49.128;8.520;2023-04-08T10:43:06;101004.66;;;19.50;38.04
28428;BME280;15662;49.128;8.520;2023-04-08T10:45:34;101007.31;;;19.51;37.81
28428;BME280;15662;49.128;8.520;2023-04-08T10:48:23;101004.59;;;19.51;37.40
28428;BME280;15662;49.128;8.520;2023-04-08T10:51:01;101007.69;;;19.44;37.50
28428;BME280;15662;49.128;8.520;2023-04-08T10:53:35;100998.84;;;19.42;37.52
28428;BME280;15662;49.128;8.520;2023-04-08T10:56:11;101007.84;;;19.41;37.05
28428;BME280;15662;49.128;8.520;2023-04-08T10:59:02;100996.47;;;19.36;36.84
28428;BME280;15662;49.128;8.520;2023-04-08T11:01:39;100998.13;;;19.38;36.97
28428;BME280;15662;49.128;8.520;2023-04-08T11:04:16;101005.09;;;19.42;36.88
28428;BME280;15662;49.128;8.520;2023-04-08T11:06:46;101000.03;;;19.36;36.83
28428;BME280;15662;49.128;8.520;2023-04-08T11:09:15;100987.94;;;19.27;36.39
28428;BME280;15662;49.128;8.520;2023-04-08T11:11:46;101001.06;;;19.33;36.21
28428;BME280;15662;49.128;8.520;2023-04-08T11:14:14;101003.97;;;19.29;36.36
28428;BME280;15662;49.128;8.520;2023-04-08T11:16:44;101003.13;;;19.28;36.29
28428;BME280;15662;49.128;8.520;2023-04-08T11:19:13;100998.22;;;19.19;35.98
28428;BME280;15662;49.128;8.520;2023-04-08T11:21:41;101007.22;;;19.18;35.98
28428;BME280;15662;49.128;8.520;2023-04-08T11:24:11;101001.22;;;19.13;35.74
28428;BME280;15662;49.128;8.520;2023-04-08T11:26:40;100998.84;;;19.07;35.58
28428;BME280;15662;49.128;8.520;2023-04-08T11:29:12;101005.56;;;19.16;35.65
28428;BME280;15662;49.128;8.520;2023-04-08T11:31:42;100998.28;;;19.18;35.90
28428;BME280;15662;49.128;8.520;2023-04-08T11:34:11;101012.13;;;19.27;35.91
28428;BME280;15662;49.128;8.520;2023-04-08T11:36:40;100996.72;;;19.31;35.57
28428;BME280;15662;49.128;8.520;2023-04-08T11:39:09;100986.84;;;19.31;35.36
28428;BME280;15662;49.128;8.520;2023-04-08T11:41:39;100994.47;;;19.39;35.60
28428;BME280;15662;49.128;8.520;2023-04-08T11:44:07;101005.47;;;19.34;35.79
28428;BME280;15662;49.128;8.520;2023-04-08T11:46:35;100994.47;;;19.39;36.07
28428;BME280;15662;49.128;8.520;2023-04-08T11:49:05;101003.03;;;19.47;35.93
28428;BME280;15662;49.128;8.520;2023-04-08T11:51:57;100995.50;;;19.54;36.04
28428;BME280;15662;49.128;8.520;2023-04-08T11:54:31;100996.09;;;19.61;36.24
28428;BME280;15662;49.128;8.520;2023-04-08T11:56:59;100991.41;;;19.64;36.27
28428;BME280;15662;49.128;8.520;2023-04-08T11:59:29;100985.97;;;19.66;35.75
28428;BME280;15662;49.128;8.520;2023-04-08T12:01:58;100989.31;;;19.69;35.92
28428;BME280;15662;49.128;8.520;2023-04-08T12:04:26;100985.97;;;19.66;35.90
28428;BME280;15662;49.128;8.520;2023-04-08T12:06:56;100981.28;;;19.52;35.41
28428;BME280;15662;49.128;8.520;2023-04-08T12:09:25;100991.16;;;19.51;35.60
28428;BME280;15662;49.128;8.520;2023-04-08T12:11:54;100988.63;;;19.48;35.67
28428;BME280;15662;49.128;8.520;2023-04-08T12:14:26;100985.69;;;19.53;35.72
28428;BME280;15662;49.128;8.520;2023-04-08T12:16:55;100998.59;;;19.64;35.38
28428;BME280;15662;49.128;8.520;2023-04-08T12:19:22;100989.56;;;19.65;35.23
28428;BME280;15662;49.128;8.520;2023-04-08T12:21:51;100995.56;;;19.70;35.10
28428;BME280;15662;49.128;8.520;2023-04-08T12:24:19;101001.56;;;19.75;35.16
28428;BME280;15662;49.128;8.520;2023-04-08T12:26:48;101001.41;;;19.78;35.15
28428;BME280;15662;49.128;8.520;2023-04-08T12:29:15;101006.03;;;19.76;35.08
28428;BME280;15662;49.128;8.520;2023-04-08T12:31:43;100991.78;;;19.74;35.24
28428;BME280;15662;49.128;8.520;2023-04-08T12:34:12;101005.78;;;19.80;34.88
28428;BME280;15662;49.128;8.520;2023-04-08T12:36:40;101004.25;;;19.75;34.52
28428;BME280;15662;49.128;8.520;2023-04-08T12:39:08;101010.78;;;19.71;34.56
28428;BME280;15662;49.128;8.520;2023-04-08T12:41:36;101010.22;;;19.64;34.63
28428;BME280;15662;49.128;8.520;2023-04-08T12:44:04;101004.19;;;19.59;34.35
28428;BME280;15662;49.128;8.520;2023-04-08T12:46:33;100999.91;;;19.55;34.45
28428;BME280;15662;49.128;8.520;2023-04-08T12:49:00;101007.22;;;19.53;34.15
28428;BME280;15662;49.128;8.520;2023-04-08T12:51:32;100998.69;;;19.27;35.02
28428;BME280;15662;49.128;8.520;2023-04-08T12:54:01;101004.38;;;19.39;34.59
28428;BME280;15662;49.128;8.520;2023-04-08T12:56:31;101011.88;;;19.49;34.51
28428;BME280;15662;49.128;8.520;2023-04-08T12:59:00;101008.94;;;19.54;34.21
28428;BME280;15662;49.128;8.520;2023-04-08T13:01:27;101002.44;;;19.58;34.09
28428;BME280;15662;49.128;8.520;2023-04-08T13:03:57;101008.25;;;19.68;33.48
28428;BME280;15662;49.128;8.520;2023-04-08T13:06:25;100996.44;;;19.70;33.39
28428;BME280;15662;49.128;8.520;2023-04-08T13:08:54;100999.84;;;19.74;33.24
28428;BME280;15662;49.128;8.520;2023-04-08T13:11:23;101001.41;;;19.78;33.29
28428;BME280;15662;49.128;8.520;2023-04-08T13:13:51;100981.09;;;19.72;33.11
28428;BME280;15662;49.128;8.520;2023-04-08T13:16:19;100993.69;;;19.72;33.48
28428;BME280;15662;49.128;8.520;2023-04-08T13:18:48;100988.06;;;19.76;33.53
28428;BME280;15662;49.128;8.520;2023-04-08T13:21:17;100980.00;;;19.76;33.32
28428;BME280;15662;49.128;8.520;2023-04-08T13:23:45;100991.63;;;19.77;33.43
28428;BME280;15662;49.128;8.520;2023-04-08T13:26:13;100984.50;;;19.76;33.30